Terminal Aerodrome Forecast
Issued by NWS Wakefield, VA

Home | Current Version | Previous Version | Text Only | Print | Product List | Glossary On
Versions: 1 2 3 4 5 6 7 8 9 10 11 12 13 14 15 16 17 18 19 20 21 22 23 24 25 26 27 28
000
FTUS41 KAKQ 192326
TAFSBY
TAF
KSBY 192326Z 2000/2024 20004KT P6SM SKC
     FM200600 23004KT 4SM BR SKC
      TEMPO 2007/2011 1SM BR
     FM201200 31004KT P6SM SKC
     FM201600 34004KT P6SM SCT050
     FM202100 VRB03KT P6SM SKC=

USA.gov is the U.S. government's official web portal to all federal, state and local government web resources and services.